EWG2PY LDSP-EDDK
Flight info
| Callsign | EWG2PY |
|---|---|
| Flight time | 1h 57m |
| Altitude | 36000 |
| Route | ZDA DCT KUDUL DCT RI DCT EKSUM DCT SIMBA DCT RODIS DCT SULUS L604 MASEK/N0457F320 T841 ERNEP ERNEP1G |
| Aircraft | A320/M-SDE3FGHIRWY/LB1 |
Departure
| Time | 2026-04-30 20:27 |
|---|---|
| Airport | Split Saint Jerome Airport (LDSP) |
Arrival
| Time | 2026-04-30 22:24 |
|---|---|
| Airport | Cologne Bonn Airport (EDDK) |
| Time | Latitude | Longitude | Altitude | Speed | Heading |
|---|---|---|---|---|---|
| 2026-04-30 20:06 | 43.53622 | 16.29661 | 68 ft | 0 kts | 93° |
| 2026-04-30 20:23 | 43.53622 | 16.29665 | 68 ft | 4 kts | 92° |
| 2026-04-30 20:23 | 43.53654 | 16.29660 | 65 ft | 7 kts | 287° |
| 2026-04-30 20:23 | 43.53677 | 16.29581 | 65 ft | 16 kts | 301° |
| 2026-04-30 20:24 | 43.53685 | 16.29464 | 86 ft | 14 kts | 231° |
| 2026-04-30 20:24 | 43.53617 | 16.29322 | 86 ft | 21 kts | 237° |
| 2026-04-30 20:24 | 43.53540 | 16.29159 | 86 ft | 20 kts | 233° |
| 2026-04-30 20:24 | 43.53461 | 16.29023 | 87 ft | 17 kts | 231° |
| 2026-04-30 20:25 | 43.53311 | 16.28759 | 89 ft | 18 kts | 223° |
| 2026-04-30 20:25 | 43.53228 | 16.28636 | 85 ft | 17 kts | 199° |
| 2026-04-30 20:26 | 43.53242 | 16.28617 | 85 ft | 2 kts | 51° |
| 2026-04-30 20:26 | 43.53242 | 16.28618 | 85 ft | 1 kts | 51° |
| 2026-04-30 20:26 | 43.53407 | 16.28920 | 89 ft | 88 kts | 53° |
| 2026-04-30 20:27 | 43.54720 | 16.31317 | 820 ft | 192 kts | 52° |
| 2026-04-30 20:27 | 43.55649 | 16.34468 | 3753 ft | 183 kts | 95° |
| 2026-04-30 20:28 | 43.53458 | 16.37469 | 4922 ft | 295 kts | 157° |
| 2026-04-30 20:28 | 43.49234 | 16.39695 | 5005 ft | 320 kts | 155° |
| 2026-04-30 20:29 | 43.45277 | 16.41059 | 5000 ft | 280 kts | 191° |
| 2026-04-30 20:30 | 43.41424 | 16.35434 | 5002 ft | 278 kts | 241° |
| 2026-04-30 20:30 | 43.38369 | 16.28574 | 7206 ft | 280 kts | 238° |
| 2026-04-30 20:31 | 43.35489 | 16.21525 | 10031 ft | 287 kts | 272° |
| 2026-04-30 20:32 | 43.38285 | 16.15459 | 11405 ft | 321 kts | 323° |
| 2026-04-30 20:32 | 43.41960 | 16.11518 | 12649 ft | 342 kts | 323° |
| 2026-04-30 20:33 | 43.43848 | 16.09477 | 13493 ft | 346 kts | 323° |
| 2026-04-30 20:33 | 43.47675 | 16.05302 | 15007 ft | 354 kts | 322° |
| 2026-04-30 20:33 | 43.49617 | 16.03172 | 15724 ft | 358 kts | 322° |
| 2026-04-30 20:34 | 43.53554 | 15.98836 | 17144 ft | 366 kts | 322° |
| 2026-04-30 20:34 | 43.57563 | 15.94413 | 18546 ft | 374 kts | 322° |
| 2026-04-30 20:35 | 43.59610 | 15.92155 | 19158 ft | 377 kts | 322° |
| 2026-04-30 20:35 | 43.61669 | 15.89881 | 19800 ft | 381 kts | 322° |
| 2026-04-30 20:35 | 43.65810 | 15.85307 | 21037 ft | 386 kts | 322° |
| 2026-04-30 20:36 | 43.67912 | 15.82978 | 21630 ft | 389 kts | 322° |
| 2026-04-30 20:36 | 43.70034 | 15.80623 | 22221 ft | 392 kts | 322° |
| 2026-04-30 20:36 | 43.74318 | 15.75863 | 23348 ft | 398 kts | 322° |
| 2026-04-30 20:37 | 43.76487 | 15.73453 | 23868 ft | 401 kts | 322° |
| 2026-04-30 20:37 | 43.78665 | 15.71029 | 24307 ft | 403 kts | 322° |
| 2026-04-30 20:37 | 43.80857 | 15.68586 | 24731 ft | 406 kts | 322° |
| 2026-04-30 20:37 | 43.83065 | 15.66120 | 25153 ft | 408 kts | 322° |
| 2026-04-30 20:38 | 43.85279 | 15.63645 | 25578 ft | 411 kts | 322° |
| 2026-04-30 20:38 | 43.87515 | 15.61147 | 25992 ft | 413 kts | 322° |
| 2026-04-30 20:38 | 43.89757 | 15.58639 | 26397 ft | 415 kts | 322° |
| 2026-04-30 20:39 | 43.94283 | 15.53577 | 27188 ft | 420 kts | 322° |
| 2026-04-30 20:39 | 43.96564 | 15.51028 | 27567 ft | 422 kts | 322° |
| 2026-04-30 20:39 | 43.98855 | 15.48464 | 27931 ft | 424 kts | 322° |
| 2026-04-30 20:40 | 44.03465 | 15.43281 | 28622 ft | 428 kts | 321° |
| 2026-04-30 20:40 | 44.05751 | 15.40701 | 28935 ft | 430 kts | 321° |
| 2026-04-30 20:40 | 44.08109 | 15.38129 | 29252 ft | 431 kts | 326° |
| 2026-04-30 20:41 | 44.13461 | 15.34382 | 29804 ft | 434 kts | 339° |
| 2026-04-30 20:41 | 44.16297 | 15.32935 | 30127 ft | 433 kts | 339° |
| 2026-04-30 20:41 | 44.19123 | 15.31483 | 30500 ft | 432 kts | 339° |
| 2026-04-30 20:41 | 44.21942 | 15.30026 | 30807 ft | 431 kts | 339° |
| 2026-04-30 20:42 | 44.24749 | 15.28570 | 31105 ft | 431 kts | 339° |
| 2026-04-30 20:42 | 44.27562 | 15.27110 | 31401 ft | 430 kts | 339° |
| 2026-04-30 20:42 | 44.33175 | 15.24204 | 31991 ft | 430 kts | 339° |
| 2026-04-30 20:43 | 44.35984 | 15.22747 | 32289 ft | 430 kts | 339° |
| 2026-04-30 20:43 | 44.38794 | 15.21285 | 32586 ft | 430 kts | 339° |
| 2026-04-30 20:43 | 44.41561 | 15.19840 | 32876 ft | 430 kts | 339° |
| 2026-04-30 20:44 | 44.47210 | 15.16884 | 33478 ft | 431 kts | 339° |
| 2026-04-30 20:44 | 44.50014 | 15.15417 | 33775 ft | 431 kts | 339° |
| 2026-04-30 20:44 | 44.55635 | 15.12472 | 34396 ft | 431 kts | 339° |
| 2026-04-30 20:45 | 44.61214 | 15.09547 | 34947 ft | 430 kts | 339° |
| 2026-04-30 20:45 | 44.64015 | 15.08074 | 35216 ft | 429 kts | 339° |
| 2026-04-30 20:45 | 44.66784 | 15.06509 | 35487 ft | 429 kts | 334° |
| 2026-04-30 20:46 | 44.74437 | 15.00012 | 36224 ft | 428 kts | 328° |
| 2026-04-30 20:46 | 44.76970 | 14.97788 | 36306 ft | 428 kts | 328° |
| 2026-04-30 20:47 | 44.84515 | 14.91156 | 36323 ft | 426 kts | 329° |
| 2026-04-30 20:48 | 44.92061 | 14.84513 | 36323 ft | 426 kts | 329° |
| 2026-04-30 20:48 | 44.97102 | 14.80062 | 36335 ft | 428 kts | 329° |
| 2026-04-30 20:49 | 45.02151 | 14.75594 | 36340 ft | 428 kts | 329° |
| 2026-04-30 20:50 | 45.09717 | 14.68880 | 36345 ft | 428 kts | 329° |
| 2026-04-30 20:50 | 45.15098 | 14.65396 | 36346 ft | 426 kts | 346° |
| 2026-04-30 20:51 | 45.20976 | 14.64248 | 36348 ft | 426 kts | 354° |
| 2026-04-30 20:51 | 45.29835 | 14.62960 | 36342 ft | 427 kts | 354° |
| 2026-04-30 20:52 | 45.35704 | 14.62099 | 36342 ft | 427 kts | 354° |
| 2026-04-30 20:53 | 45.44580 | 14.60802 | 36347 ft | 427 kts | 354° |
| 2026-04-30 20:53 | 45.50485 | 14.59938 | 36351 ft | 426 kts | 354° |
| 2026-04-30 20:54 | 45.59316 | 14.58634 | 36357 ft | 426 kts | 354° |
| 2026-04-30 20:55 | 45.68153 | 14.57326 | 36369 ft | 426 kts | 355° |
| 2026-04-30 20:55 | 45.73971 | 14.55739 | 36369 ft | 427 kts | 341° |
| 2026-04-30 20:56 | 45.82200 | 14.50899 | 36369 ft | 428 kts | 340° |
| 2026-04-30 20:57 | 45.90467 | 14.46014 | 36370 ft | 428 kts | 340° |
| 2026-04-30 20:57 | 45.95976 | 14.42758 | 36369 ft | 428 kts | 340° |
| 2026-04-30 20:58 | 46.04227 | 14.37853 | 36369 ft | 428 kts | 340° |
| 2026-04-30 20:58 | 46.09733 | 14.34563 | 36369 ft | 428 kts | 340° |
| 2026-04-30 20:59 | 46.17967 | 14.29640 | 36375 ft | 429 kts | 340° |
| 2026-04-30 21:00 | 46.28990 | 14.23015 | 36371 ft | 429 kts | 340° |
| 2026-04-30 21:01 | 46.37263 | 14.18032 | 36378 ft | 429 kts | 341° |
| 2026-04-30 21:02 | 46.45492 | 14.13053 | 36394 ft | 429 kts | 341° |
| 2026-04-30 21:02 | 46.51019 | 14.09706 | 36403 ft | 430 kts | 341° |
| 2026-04-30 21:03 | 46.56536 | 14.06359 | 36407 ft | 430 kts | 341° |
| 2026-04-30 21:03 | 46.62053 | 14.03005 | 36408 ft | 429 kts | 341° |
| 2026-04-30 21:04 | 46.67529 | 13.99662 | 36413 ft | 429 kts | 341° |
| 2026-04-30 21:04 | 46.75712 | 13.94653 | 36407 ft | 428 kts | 341° |
| 2026-04-30 21:05 | 46.81190 | 13.91288 | 36397 ft | 428 kts | 342° |
| 2026-04-30 21:05 | 46.86683 | 13.87915 | 36397 ft | 428 kts | 341° |
| 2026-04-30 21:06 | 46.91604 | 13.84876 | 36394 ft | 427 kts | 342° |
| 2026-04-30 21:06 | 46.97074 | 13.81493 | 36390 ft | 427 kts | 342° |
| 2026-04-30 21:07 | 47.02541 | 13.78119 | 36388 ft | 426 kts | 342° |
| 2026-04-30 21:07 | 47.07977 | 13.74755 | 36380 ft | 425 kts | 342° |
| 2026-04-30 21:08 | 47.13429 | 13.71364 | 36388 ft | 426 kts | 342° |
| 2026-04-30 21:08 | 47.18888 | 13.67959 | 36394 ft | 425 kts | 342° |
| 2026-04-30 21:09 | 47.24331 | 13.64558 | 36381 ft | 424 kts | 342° |
| 2026-04-30 21:09 | 47.29725 | 13.61178 | 36385 ft | 425 kts | 342° |
| 2026-04-30 21:10 | 47.35163 | 13.57767 | 36381 ft | 424 kts | 342° |
| 2026-04-30 21:10 | 47.40586 | 13.54352 | 36384 ft | 424 kts | 342° |
| 2026-04-30 21:11 | 47.46019 | 13.50927 | 36393 ft | 424 kts | 343° |
| 2026-04-30 21:11 | 47.51447 | 13.47503 | 36396 ft | 423 kts | 343° |
| 2026-04-30 21:12 | 47.56863 | 13.44072 | 36399 ft | 423 kts | 343° |
| 2026-04-30 21:12 | 47.62273 | 13.40647 | 36390 ft | 422 kts | 343° |
| 2026-04-30 21:13 | 47.67641 | 13.37243 | 36392 ft | 422 kts | 343° |
| 2026-04-30 21:13 | 47.73073 | 13.33783 | 36394 ft | 422 kts | 343° |
| 2026-04-30 21:14 | 47.78436 | 13.30357 | 36392 ft | 422 kts | 343° |
| 2026-04-30 21:14 | 47.83825 | 13.26911 | 36388 ft | 421 kts | 343° |
| 2026-04-30 21:15 | 47.89208 | 13.23456 | 36394 ft | 421 kts | 343° |
| 2026-04-30 21:15 | 47.94582 | 13.19998 | 36392 ft | 420 kts | 343° |
| 2026-04-30 21:16 | 47.99951 | 13.16538 | 36397 ft | 419 kts | 343° |
| 2026-04-30 21:16 | 48.05303 | 13.13079 | 36399 ft | 419 kts | 343° |
| 2026-04-30 21:17 | 48.09746 | 13.10201 | 36402 ft | 419 kts | 343° |
| 2026-04-30 21:17 | 48.15959 | 13.06171 | 36402 ft | 418 kts | 343° |
| 2026-04-30 21:18 | 48.20403 | 13.03281 | 36401 ft | 418 kts | 343° |
| 2026-04-30 21:18 | 48.25642 | 12.99394 | 36402 ft | 423 kts | 338° |
| 2026-04-30 21:19 | 48.30784 | 12.95096 | 36405 ft | 423 kts | 338° |
| 2026-04-30 21:19 | 48.35922 | 12.90800 | 36404 ft | 422 kts | 338° |
| 2026-04-30 21:20 | 48.41056 | 12.86506 | 36403 ft | 422 kts | 338° |
| 2026-04-30 21:20 | 48.46192 | 12.82198 | 36409 ft | 422 kts | 338° |
| 2026-04-30 21:21 | 48.51322 | 12.77876 | 36407 ft | 422 kts | 338° |
| 2026-04-30 21:22 | 48.58979 | 12.71391 | 36411 ft | 422 kts | 338° |
| 2026-04-30 21:23 | 48.69221 | 12.62691 | 36416 ft | 422 kts | 338° |
| 2026-04-30 21:23 | 48.76910 | 12.56161 | 36414 ft | 422 kts | 338° |
| 2026-04-30 21:24 | 48.82035 | 12.51787 | 36413 ft | 422 kts | 338° |
| 2026-04-30 21:24 | 48.87155 | 12.47404 | 36403 ft | 422 kts | 337° |
| 2026-04-30 21:25 | 48.94807 | 12.40823 | 36403 ft | 422 kts | 337° |
| 2026-04-30 21:26 | 49.02483 | 12.34202 | 36410 ft | 423 kts | 337° |
| 2026-04-30 21:27 | 49.10168 | 12.27554 | 36405 ft | 423 kts | 337° |
| 2026-04-30 21:27 | 49.15308 | 12.23111 | 36405 ft | 423 kts | 337° |
| 2026-04-30 21:28 | 49.22966 | 12.16462 | 36400 ft | 424 kts | 336° |
| 2026-04-30 21:29 | 49.30667 | 12.09722 | 36404 ft | 425 kts | 336° |
| 2026-04-30 21:30 | 49.43508 | 11.98456 | 36417 ft | 425 kts | 336° |
| 2026-04-30 21:31 | 49.50277 | 11.89352 | 36439 ft | 445 kts | 314° |
| 2026-04-30 21:31 | 49.54029 | 11.81853 | 36441 ft | 445 kts | 314° |
| 2026-04-30 21:32 | 49.59708 | 11.70518 | 36438 ft | 446 kts | 314° |
| 2026-04-30 21:32 | 49.63494 | 11.62919 | 36433 ft | 446 kts | 314° |
| 2026-04-30 21:33 | 49.69165 | 11.51493 | 36427 ft | 446 kts | 314° |
| 2026-04-30 21:34 | 49.72938 | 11.43863 | 36429 ft | 447 kts | 313° |
| 2026-04-30 21:34 | 49.78587 | 11.32404 | 36423 ft | 446 kts | 313° |
| 2026-04-30 21:35 | 49.82326 | 11.24799 | 36428 ft | 447 kts | 313° |
| 2026-04-30 21:35 | 49.86078 | 11.17127 | 36435 ft | 446 kts | 313° |
| 2026-04-30 21:36 | 49.89831 | 11.09433 | 36427 ft | 447 kts | 313° |
| 2026-04-30 21:37 | 49.97319 | 10.94044 | 36415 ft | 447 kts | 312° |
| 2026-04-30 21:37 | 50.01051 | 10.86319 | 36410 ft | 447 kts | 312° |
| 2026-04-30 21:38 | 50.04755 | 10.78631 | 36416 ft | 447 kts | 312° |
| 2026-04-30 21:38 | 50.08617 | 10.71081 | 36413 ft | 442 kts | 319° |
| 2026-04-30 21:39 | 50.12857 | 10.64162 | 36411 ft | 442 kts | 319° |
| 2026-04-30 21:39 | 50.17092 | 10.57214 | 36407 ft | 442 kts | 318° |
| 2026-04-30 21:40 | 50.21324 | 10.50251 | 36407 ft | 442 kts | 318° |
| 2026-04-30 21:40 | 50.25576 | 10.43296 | 36404 ft | 442 kts | 319° |
| 2026-04-30 21:41 | 50.29835 | 10.36470 | 36404 ft | 442 kts | 319° |
| 2026-04-30 21:41 | 50.34132 | 10.29583 | 36400 ft | 442 kts | 319° |
| 2026-04-30 21:42 | 50.38283 | 10.22457 | 36407 ft | 444 kts | 315° |
| 2026-04-30 21:42 | 50.42427 | 10.15282 | 36407 ft | 443 kts | 317° |
| 2026-04-30 21:43 | 50.46676 | 10.08273 | 36404 ft | 443 kts | 317° |
| 2026-04-30 21:43 | 50.50850 | 10.01232 | 36408 ft | 444 kts | 316° |
| 2026-04-30 21:44 | 50.55012 | 9.94042 | 36411 ft | 445 kts | 315° |
| 2026-04-30 21:44 | 50.59013 | 9.86598 | 36414 ft | 446 kts | 313° |
| 2026-04-30 21:45 | 50.60981 | 9.82782 | 35791 ft | 453 kts | 313° |
| 2026-04-30 21:45 | 50.62975 | 9.78900 | 34682 ft | 452 kts | 312° |
| 2026-04-30 21:45 | 50.64946 | 9.75072 | 33505 ft | 449 kts | 312° |
| 2026-04-30 21:45 | 50.66926 | 9.71257 | 32328 ft | 450 kts | 313° |
| 2026-04-30 21:46 | 50.68896 | 9.67478 | 31098 ft | 449 kts | 313° |
| 2026-04-30 21:46 | 50.70891 | 9.63672 | 29162 ft | 452 kts | 313° |
| 2026-04-30 21:46 | 50.72821 | 9.59706 | 27019 ft | 460 kts | 306° |
| 2026-04-30 21:46 | 50.74378 | 9.55299 | 25479 ft | 458 kts | 300° |
| 2026-04-30 21:47 | 50.75801 | 9.50824 | 24057 ft | 452 kts | 300° |
| 2026-04-30 21:47 | 50.77201 | 9.46423 | 22502 ft | 446 kts | 300° |
| 2026-04-30 21:47 | 50.78586 | 9.42062 | 21116 ft | 439 kts | 300° |
| 2026-04-30 21:47 | 50.79947 | 9.37776 | 19804 ft | 433 kts | 300° |
| 2026-04-30 21:48 | 50.81288 | 9.33557 | 18554 ft | 427 kts | 300° |
| 2026-04-30 21:48 | 50.82615 | 9.29384 | 17221 ft | 421 kts | 299° |
| 2026-04-30 21:48 | 50.83920 | 9.25276 | 15986 ft | 415 kts | 299° |
| 2026-04-30 21:48 | 50.85202 | 9.21224 | 15163 ft | 410 kts | 298° |
| 2026-04-30 21:49 | 50.86483 | 9.17167 | 14952 ft | 415 kts | 298° |
| 2026-04-30 21:49 | 50.87774 | 9.13067 | 14719 ft | 417 kts | 298° |
| 2026-04-30 21:49 | 50.89058 | 9.08978 | 14475 ft | 414 kts | 298° |
| 2026-04-30 21:49 | 50.90341 | 9.04896 | 14231 ft | 414 kts | 298° |
| 2026-04-30 21:50 | 50.91624 | 9.00810 | 13965 ft | 413 kts | 298° |
| 2026-04-30 21:50 | 50.92877 | 8.96791 | 13710 ft | 411 kts | 298° |
| 2026-04-30 21:50 | 50.94136 | 8.92732 | 13442 ft | 410 kts | 298° |
| 2026-04-30 21:50 | 50.95402 | 8.88694 | 13189 ft | 408 kts | 298° |
| 2026-04-30 21:51 | 50.96681 | 8.84682 | 12928 ft | 406 kts | 298° |
| 2026-04-30 21:51 | 50.97960 | 8.80708 | 12674 ft | 404 kts | 298° |
| 2026-04-30 21:51 | 50.99220 | 8.76742 | 12414 ft | 402 kts | 296° |
| 2026-04-30 21:51 | 51.00189 | 8.72581 | 12163 ft | 401 kts | 287° |
| 2026-04-30 21:52 | 51.00756 | 8.68255 | 11915 ft | 400 kts | 277° |
| 2026-04-30 21:52 | 51.00913 | 8.63854 | 11665 ft | 399 kts | 269° |
| 2026-04-30 21:52 | 51.00671 | 8.59471 | 11421 ft | 397 kts | 260° |
| 2026-04-30 21:52 | 51.00196 | 8.55170 | 11182 ft | 394 kts | 259° |
| 2026-04-30 21:53 | 50.99717 | 8.50896 | 10933 ft | 392 kts | 259° |
| 2026-04-30 21:53 | 50.99240 | 8.46646 | 10689 ft | 390 kts | 259° |
| 2026-04-30 21:53 | 50.98765 | 8.42411 | 10449 ft | 388 kts | 259° |
| 2026-04-30 21:53 | 50.98292 | 8.38209 | 10200 ft | 386 kts | 259° |
| 2026-04-30 21:54 | 50.97825 | 8.34048 | 9962 ft | 376 kts | 259° |
| 2026-04-30 21:54 | 50.97418 | 8.30139 | 9990 ft | 351 kts | 262° |
| 2026-04-30 21:54 | 50.97259 | 8.26319 | 9851 ft | 335 kts | 269° |
| 2026-04-30 21:54 | 50.97359 | 8.22702 | 9719 ft | 321 kts | 274° |
| 2026-04-30 21:55 | 50.97503 | 8.19290 | 9572 ft | 309 kts | 273° |
| 2026-04-30 21:55 | 50.97636 | 8.15922 | 9245 ft | 303 kts | 273° |
| 2026-04-30 21:55 | 50.97763 | 8.12588 | 8864 ft | 301 kts | 272° |
| 2026-04-30 21:55 | 50.97888 | 8.09279 | 8430 ft | 300 kts | 272° |
| 2026-04-30 21:56 | 50.98011 | 8.05984 | 8097 ft | 298 kts | 272° |
| 2026-04-30 21:56 | 50.98135 | 8.02697 | 8044 ft | 299 kts | 272° |
| 2026-04-30 21:56 | 50.98258 | 7.99402 | 8052 ft | 299 kts | 272° |
| 2026-04-30 21:56 | 50.98381 | 7.96102 | 8053 ft | 300 kts | 272° |
| 2026-04-30 21:57 | 50.98505 | 7.92801 | 8046 ft | 300 kts | 272° |
| 2026-04-30 21:57 | 50.98629 | 7.89496 | 8047 ft | 300 kts | 272° |
| 2026-04-30 21:57 | 50.98748 | 7.86238 | 8051 ft | 300 kts | 272° |
| 2026-04-30 21:57 | 50.98868 | 7.82931 | 8045 ft | 300 kts | 272° |
| 2026-04-30 21:58 | 50.98986 | 7.79618 | 8045 ft | 300 kts | 272° |
| 2026-04-30 21:58 | 50.99103 | 7.76328 | 8043 ft | 299 kts | 272° |
| 2026-04-30 21:58 | 50.99336 | 7.73038 | 8006 ft | 299 kts | 277° |
| 2026-04-30 21:58 | 50.99648 | 7.69787 | 7564 ft | 297 kts | 278° |
| 2026-04-30 21:59 | 50.99986 | 7.66569 | 6979 ft | 293 kts | 278° |
| 2026-04-30 21:59 | 51.00328 | 7.63388 | 6317 ft | 287 kts | 278° |
| 2026-04-30 21:59 | 51.00650 | 7.60402 | 6187 ft | 262 kts | 278° |
| 2026-04-30 22:00 | 51.01204 | 7.55137 | 5883 ft | 226 kts | 277° |
| 2026-04-30 22:00 | 51.01687 | 7.50436 | 5379 ft | 210 kts | 276° |
| 2026-04-30 22:00 | 51.01919 | 7.48153 | 5047 ft | 208 kts | 276° |
| 2026-04-30 22:01 | 51.02147 | 7.45883 | 4689 ft | 207 kts | 275° |
| 2026-04-30 22:01 | 51.02375 | 7.43622 | 4325 ft | 207 kts | 275° |
| 2026-04-30 22:01 | 51.02449 | 7.42884 | 4212 ft | 207 kts | 275° |
| 2026-04-30 22:01 | 51.02655 | 7.40804 | 4029 ft | 206 kts | 274° |
| 2026-04-30 22:02 | 51.02867 | 7.38642 | 4059 ft | 190 kts | 274° |
| 2026-04-30 22:02 | 51.03073 | 7.36629 | 4009 ft | 177 kts | 274° |
| 2026-04-30 22:02 | 51.03263 | 7.34779 | 4000 ft | 164 kts | 273° |
| 2026-04-30 22:02 | 51.03432 | 7.33004 | 4009 ft | 161 kts | 272° |
| 2026-04-30 22:03 | 51.03603 | 7.31260 | 4021 ft | 160 kts | 272° |
| 2026-04-30 22:03 | 51.03778 | 7.29517 | 4012 ft | 159 kts | 272° |
| 2026-04-30 22:03 | 51.03954 | 7.27771 | 4015 ft | 159 kts | 272° |
| 2026-04-30 22:03 | 51.04130 | 7.26033 | 4012 ft | 159 kts | 272° |
| 2026-04-30 22:04 | 51.04247 | 7.24882 | 4021 ft | 160 kts | 272° |
| 2026-04-30 22:04 | 51.04479 | 7.22576 | 4021 ft | 160 kts | 273° |
| 2026-04-30 22:04 | 51.04647 | 7.19120 | 4041 ft | 154 kts | 258° |
| 2026-04-30 22:05 | 51.04575 | 7.17426 | 4027 ft | 153 kts | 258° |
| 2026-04-30 22:05 | 51.04528 | 7.16306 | 4013 ft | 153 kts | 258° |
| 2026-04-30 22:05 | 51.04456 | 7.14624 | 4023 ft | 153 kts | 258° |
| 2026-04-30 22:05 | 51.04384 | 7.12941 | 3910 ft | 153 kts | 257° |
| 2026-04-30 22:06 | 51.04310 | 7.11252 | 3779 ft | 153 kts | 257° |
| 2026-04-30 22:06 | 51.04157 | 7.07777 | 3150 ft | 163 kts | 257° |
| 2026-04-30 22:06 | 51.04080 | 7.06003 | 3009 ft | 157 kts | 256° |
| 2026-04-30 22:07 | 51.04007 | 7.04294 | 3017 ft | 153 kts | 256° |
| 2026-04-30 22:07 | 51.03936 | 7.02649 | 3008 ft | 152 kts | 255° |
| 2026-04-30 22:07 | 51.03863 | 7.00950 | 3013 ft | 151 kts | 255° |
| 2026-04-30 22:07 | 51.03790 | 6.99283 | 3020 ft | 151 kts | 255° |
| 2026-04-30 22:08 | 51.03717 | 6.97623 | 3017 ft | 151 kts | 255° |
| 2026-04-30 22:08 | 51.03642 | 6.95961 | 3005 ft | 151 kts | 255° |
| 2026-04-30 22:08 | 51.03393 | 6.94415 | 3017 ft | 138 kts | 224° |
| 2026-04-30 22:08 | 51.02732 | 6.93488 | 3013 ft | 120 kts | 191° |
| 2026-04-30 22:09 | 51.01953 | 6.93283 | 3023 ft | 113 kts | 165° |
| 2026-04-30 22:09 | 51.01217 | 6.93732 | 3025 ft | 117 kts | 141° |
| 2026-04-30 22:09 | 51.00598 | 6.94622 | 3022 ft | 122 kts | 136° |
| 2026-04-30 22:09 | 50.99968 | 6.95540 | 3014 ft | 123 kts | 136° |
| 2026-04-30 22:10 | 50.99344 | 6.96451 | 3013 ft | 123 kts | 136° |
| 2026-04-30 22:10 | 50.98712 | 6.97374 | 2991 ft | 124 kts | 136° |
| 2026-04-30 22:10 | 50.98078 | 6.98300 | 2892 ft | 124 kts | 135° |
| 2026-04-30 22:10 | 50.97443 | 6.99219 | 2762 ft | 123 kts | 136° |
| 2026-04-30 22:11 | 50.96183 | 7.01052 | 2451 ft | 123 kts | 135° |
| 2026-04-30 22:11 | 50.95559 | 7.01969 | 2283 ft | 122 kts | 135° |
| 2026-04-30 22:11 | 50.94937 | 7.02877 | 2119 ft | 121 kts | 135° |
| 2026-04-30 22:12 | 50.94316 | 7.03784 | 1952 ft | 122 kts | 135° |
| 2026-04-30 22:12 | 50.93691 | 7.04695 | 1782 ft | 122 kts | 135° |
| 2026-04-30 22:12 | 50.93077 | 7.05590 | 1622 ft | 121 kts | 135° |
| 2026-04-30 22:12 | 50.92456 | 7.06494 | 1455 ft | 121 kts | 135° |
| 2026-04-30 22:13 | 50.91834 | 7.07399 | 1281 ft | 122 kts | 135° |
| 2026-04-30 22:13 | 50.91207 | 7.08310 | 1106 ft | 122 kts | 135° |
| 2026-04-30 22:13 | 50.90581 | 7.09221 | 947 ft | 122 kts | 135° |
| 2026-04-30 22:13 | 50.89957 | 7.10129 | 783 ft | 122 kts | 130° |
| 2026-04-30 22:14 | 50.89335 | 7.11036 | 652 ft | 122 kts | 135° |
| 2026-04-30 22:14 | 50.88720 | 7.11957 | 477 ft | 121 kts | 135° |
| 2026-04-30 22:14 | 50.88091 | 7.12852 | 268 ft | 125 kts | 134° |
| 2026-04-30 22:14 | 50.87525 | 7.13783 | 527 ft | 119 kts | 118° |
| 2026-04-30 22:15 | 50.86954 | 7.15004 | 1095 ft | 151 kts | 132° |
| 2026-04-30 22:15 | 50.86159 | 7.16047 | 1910 ft | 148 kts | 136° |
| 2026-04-30 22:15 | 50.85384 | 7.17133 | 2449 ft | 150 kts | 136° |
| 2026-04-30 22:15 | 50.84603 | 7.18248 | 2949 ft | 153 kts | 136° |
| 2026-04-30 22:16 | 50.83809 | 7.19386 | 3017 ft | 150 kts | 136° |
| 2026-04-30 22:16 | 50.83042 | 7.20487 | 3032 ft | 161 kts | 136° |
| 2026-04-30 22:17 | 50.80222 | 7.23997 | 3007 ft | 148 kts | 144° |
| 2026-04-30 22:17 | 50.79326 | 7.24754 | 3018 ft | 155 kts | 139° |
| 2026-04-30 22:17 | 50.79466 | 7.28087 | 3014 ft | 193 kts | 51° |
| 2026-04-30 22:18 | 50.80781 | 7.28823 | 3010 ft | 219 kts | 4° |
| 2026-04-30 22:18 | 50.83539 | 7.26485 | 3010 ft | 232 kts | 318° |
| 2026-04-30 22:19 | 50.85646 | 7.22683 | 2998 ft | 214 kts | 309° |
| 2026-04-30 22:19 | 50.86542 | 7.20954 | 3007 ft | 193 kts | 308° |
| 2026-04-30 22:19 | 50.88163 | 7.17801 | 3005 ft | 181 kts | 309° |
| 2026-04-30 22:20 | 50.88957 | 7.16257 | 3007 ft | 181 kts | 309° |
| 2026-04-30 22:20 | 50.90494 | 7.13267 | 3003 ft | 171 kts | 309° |
| 2026-04-30 22:20 | 50.91245 | 7.11807 | 3015 ft | 170 kts | 309° |
| 2026-04-30 22:21 | 50.91994 | 7.10356 | 3013 ft | 169 kts | 309° |
| 2026-04-30 22:21 | 50.92738 | 7.08913 | 3007 ft | 169 kts | 310° |
| 2026-04-30 22:21 | 50.93473 | 7.07467 | 3003 ft | 168 kts | 304° |
| 2026-04-30 22:21 | 50.93737 | 7.05765 | 2978 ft | 154 kts | 240° |
| 2026-04-30 22:22 | 50.93167 | 7.04621 | 2560 ft | 126 kts | 170° |
| 2026-04-30 22:22 | 50.92516 | 7.05720 | 1494 ft | 163 kts | 108° |
| 2026-04-30 22:22 | 50.91959 | 7.06923 | 1320 ft | 136 kts | 128° |
| 2026-04-30 22:22 | 50.91322 | 7.07955 | 918 ft | 135 kts | 126° |
| 2026-04-30 22:23 | 50.90707 | 7.09055 | 695 ft | 128 kts | 132° |
| 2026-04-30 22:23 | 50.90077 | 7.09999 | 533 ft | 125 kts | 133° |
| 2026-04-30 22:23 | 50.89451 | 7.10909 | 478 ft | 121 kts | 135° |
| 2026-04-30 22:23 | 50.88822 | 7.11800 | 370 ft | 121 kts | 134° |
| 2026-04-30 22:24 | 50.88201 | 7.12689 | 261 ft | 120 kts | 135° |
| 2026-04-30 22:24 | 50.87651 | 7.13479 | 239 ft | 90 kts | 134° |
| 2026-04-30 22:24 | 50.87312 | 7.13945 | 242 ft | 40 kts | 159° |